Time;durP1;ratioP1;P1;durP2;ratioP2;P2;SDS_P1;SDS_P2;PMS_P1;PMS_P2;Temp;Humidity;BMP_temperature;BMP_pressure;BME280_temperature;BME280_humidity;BME280_pressure;Samples;Min_cycle;Max_cycle;Signal;HPM_P1;HPM_P2
2023/04/08 00:00:10;;;;;;;;;;;6.90;86.60;;;;;;5031542;28;19928;-61
2023/04/08 00:02:37;;;;;;;;;;;6.80;86.70;;;;;;5034481;28;19921;-61
2023/04/08 00:05:04;;;;;;;;;;;6.80;86.80;;;;;;5034865;28;19928;-62
2023/04/08 00:07:31;;;;;;;;;;;6.80;87.00;;;;;;5035552;28;20009;-62
2023/04/08 00:09:59;;;;;;;;;;;6.80;86.80;;;;;;5034954;28;20011;-61
2023/04/08 00:12:26;;;;;;;;;;;6.80;86.80;;;;;;5035674;28;20010;-62
2023/04/08 00:14:52;;;;;;;;;;;6.80;86.90;;;;;;5033702;28;19925;-62
2023/04/08 00:17:19;;;;;;;;;;;6.70;87.00;;;;;;5035732;28;20372;-62
2023/04/08 00:19:46;;;;;;;;;;;6.70;87.20;;;;;;5001948;28;19943;-61
2023/04/08 00:22:12;;;;;;;;;;;6.70;86.90;;;;;;5035911;28;20307;-60
2023/04/08 00:24:40;;;;;;;;;;;6.70;86.90;;;;;;5038356;28;20287;-61
2023/04/08 00:27:08;;;;;;;;;;;6.70;87.20;;;;;;5037385;28;19991;-61
2023/04/08 00:29:35;;;;;;;;;;;6.60;87.20;;;;;;5040198;28;19944;-62
2023/04/08 00:32:02;;;;;;;;;;;6.60;87.10;;;;;;5036539;28;19932;-62
2023/04/08 00:34:29;;;;;;;;;;;6.60;87.20;;;;;;5038041;28;19929;-61
2023/04/08 00:36:56;;;;;;;;;;;6.70;87.10;;;;;;5036325;28;19929;-61
2023/04/08 00:39:23;;;;;;;;;;;6.70;86.90;;;;;;5038695;28;19925;-63
2023/04/08 00:41:50;;;;;;;;;;;6.60;87.00;;;;;;5037057;28;19924;-60
2023/04/08 00:44:18;;;;;;;;;;;6.60;87.10;;;;;;5037026;28;20295;-61
2023/04/08 00:46:45;;;;;;;;;;;6.70;86.90;;;;;;5035885;28;19979;-62
2023/04/08 00:49:11;;;;;;;;;;;6.60;87.10;;;;;;5019998;28;19925;-61
2023/04/08 00:51:38;;;;;;;;;;;6.60;86.90;;;;;;5037105;28;20363;-61
2023/04/08 00:54:06;;;;;;;;;;;6.60;86.70;;;;;;5020451;28;19925;-63
2023/04/08 00:56:33;;;;;;;;;;;6.60;86.70;;;;;;5040095;28;20379;-60
2023/04/08 00:59:00;;;;;;;;;;;6.60;86.80;;;;;;5039497;28;19925;-62
2023/04/08 01:01:32;;;;;;;;;;;6.70;86.60;;;;;;5030664;28;19929;-62
2023/04/08 01:04:06;;;;;;;;;;;6.70;86.60;;;;;;5020455;28;19931;-61
2023/04/08 01:06:41;;;;;;;;;;;6.60;86.30;;;;;;5038708;28;19924;-62
2023/04/08 01:09:09;;;;;;;;;;;6.60;86.40;;;;;;5036549;28;19935;-61
2023/04/08 01:11:37;;;;;;;;;;;6.60;86.60;;;;;;5036909;28;19947;-64
2023/04/08 01:14:06;;;;;;;;;;;6.60;86.70;;;;;;5022944;28;19931;-62
2023/04/08 01:16:34;;;;;;;;;;;6.60;86.40;;;;;;5033185;28;19952;-61
2023/04/08 01:19:01;;;;;;;;;;;6.50;86.30;;;;;;5035949;28;19925;-62
2023/04/08 01:21:28;;;;;;;;;;;6.50;86.50;;;;;;5036137;28;20069;-62
2023/04/08 01:24:01;;;;;;;;;;;6.40;86.50;;;;;;5037690;28;20437;-63
2023/04/08 01:26:29;;;;;;;;;;;6.50;86.50;;;;;;5018985;28;19924;-62
2023/04/08 01:28:57;;;;;;;;;;;6.50;86.40;;;;;;5037859;28;19921;-62
2023/04/08 01:31:25;;;;;;;;;;;6.40;86.40;;;;;;5033458;28;19932;-62
2023/04/08 01:33:52;;;;;;;;;;;6.40;86.40;;;;;;5035915;28;19924;-62
2023/04/08 01:36:19;;;;;;;;;;;6.40;86.20;;;;;;5025803;28;19929;-60
2023/04/08 01:38:46;;;;;;;;;;;6.30;86.40;;;;;;5026774;28;19925;-62
2023/04/08 01:41:16;;;;;;;;;;;6.30;86.40;;;;;;5014489;28;19948;-61
2023/04/08 01:43:45;;;;;;;;;;;6.30;86.50;;;;;;5016202;28;19936;-62
2023/04/08 01:46:12;;;;;;;;;;;6.30;86.40;;;;;;5030221;28;19920;-60
2023/04/08 01:48:41;;;;;;;;;;;6.30;86.60;;;;;;5031042;28;19929;-62
2023/04/08 01:51:09;;;;;;;;;;;6.20;86.80;;;;;;5026662;28;20218;-62
2023/04/08 01:53:36;;;;;;;;;;;6.20;87.00;;;;;;5010350;28;19931;-63
2023/04/08 01:56:05;;;;;;;;;;;6.20;86.90;;;;;;5036024;28;19925;-62
2023/04/08 01:58:35;;;;;;;;;;;6.20;86.80;;;;;;5012823;28;19929;-62
2023/04/08 02:01:05;;;;;;;;;;;6.20;86.70;;;;;;5009119;28;19921;-61
2023/04/08 02:03:32;;;;;;;;;;;6.20;86.80;;;;;;5016996;28;19963;-62
2023/04/08 02:05:59;;;;;;;;;;;6.10;86.90;;;;;;5029150;28;19925;-63
2023/04/08 02:08:26;;;;;;;;;;;6.20;86.90;;;;;;5025024;28;20289;-62
2023/04/08 02:10:53;;;;;;;;;;;6.20;86.80;;;;;;5000278;28;20389;-62
2023/04/08 02:13:20;;;;;;;;;;;6.10;86.60;;;;;;5028587;28;19928;-62
2023/04/08 02:15:49;;;;;;;;;;;6.10;86.60;;;;;;5017240;28;19920;-63
2023/04/08 02:18:22;;;;;;;;;;;6.20;86.50;;;;;;5027070;28;19929;-62
2023/04/08 02:20:53;;;;;;;;;;;6.10;86.40;;;;;;5015534;28;19932;-62
2023/04/08 02:23:24;;;;;;;;;;;6.10;86.40;;;;;;5036906;28;19938;-61
2023/04/08 02:25:56;;;;;;;;;;;6.10;86.20;;;;;;5031510;28;19983;-61
2023/04/08 02:28:26;;;;;;;;;;;6.10;86.30;;;;;;5034741;28;20283;-61
2023/04/08 02:30:54;;;;;;;;;;;6.10;86.30;;;;;;5030422;28;19986;-61
2023/04/08 02:33:22;;;;;;;;;;;6.20;86.10;;;;;;5032380;28;19925;-65
2023/04/08 02:35:53;;;;;;;;;;;6.10;86.20;;;;;;5019272;28;20249;-61
2023/04/08 02:38:20;;;;;;;;;;;6.00;86.30;;;;;;5028684;28;19935;-62
2023/04/08 02:40:49;;;;;;;;;;;6.10;86.20;;;;;;5016846;28;19975;-60
2023/04/08 02:43:15;;;;;;;;;;;6.10;85.90;;;;;;5024388;28;19925;-61
2023/04/08 02:45:43;;;;;;;;;;;6.10;85.90;;;;;;5032293;28;19925;-62
2023/04/08 02:48:10;;;;;;;;;;;6.20;85.80;;;;;;5032214;28;19936;-61
2023/04/08 02:50:38;;;;;;;;;;;6.10;86.00;;;;;;4999743;28;19924;-63
2023/04/08 02:53:05;;;;;;;;;;;6.00;86.10;;;;;;5030891;28;20268;-62
2023/04/08 02:55:33;;;;;;;;;;;6.00;85.90;;;;;;5005253;28;19947;-62
2023/04/08 02:58:00;;;;;;;;;;;6.00;86.00;;;;;;5031550;28;19931;-62
2023/04/08 03:00:27;;;;;;;;;;;6.00;85.90;;;;;;5029775;28;19933;-61
2023/04/08 03:02:53;;;;;;;;;;;6.00;85.90;;;;;;5035353;28;20376;-61
2023/04/08 03:05:20;;;;;;;;;;;5.90;85.90;;;;;;5026157;28;19935;-63
2023/04/08 03:07:48;;;;;;;;;;;5.90;85.80;;;;;;5030373;28;19920;-62
2023/04/08 03:10:15;;;;;;;;;;;5.80;86.20;;;;;;5030328;28;20470;-61
2023/04/08 03:12:42;;;;;;;;;;;5.80;86.40;;;;;;5028380;28;19929;-62
2023/04/08 03:15:09;;;;;;;;;;;5.80;86.30;;;;;;5027946;28;19928;-63
2023/04/08 03:17:35;;;;;;;;;;;5.90;86.20;;;;;;5032027;28;19928;-62
2023/04/08 03:20:03;;;;;;;;;;;5.80;86.20;;;;;;5029978;28;19929;-62
2023/04/08 03:22:30;;;;;;;;;;;5.80;86.10;;;;;;5035066;28;19943;-60
2023/04/08 03:24:58;;;;;;;;;;;5.80;86.00;;;;;;5016301;28;19928;-60
2023/04/08 03:27:25;;;;;;;;;;;5.80;85.80;;;;;;5029264;28;19921;-61
2023/04/08 03:29:52;;;;;;;;;;;5.80;86.10;;;;;;5030861;28;20353;-60
2023/04/08 03:32:19;;;;;;;;;;;5.80;86.20;;;;;;5034239;28;19929;-61
2023/04/08 03:34:46;;;;;;;;;;;5.70;86.30;;;;;;5028422;28;19932;-63
2023/04/08 03:37:12;;;;;;;;;;;5.70;86.30;;;;;;5030901;28;19925;-61
2023/04/08 03:39:39;;;;;;;;;;;5.70;86.10;;;;;;5030380;28;19929;-62
2023/04/08 03:42:07;;;;;;;;;;;5.70;86.30;;;;;;5034045;28;20503;-62
2023/04/08 03:44:34;;;;;;;;;;;5.70;86.00;;;;;;5032547;28;19931;-62
2023/04/08 03:47:00;;;;;;;;;;;5.70;86.00;;;;;;5032328;28;19925;-62
2023/04/08 03:49:27;;;;;;;;;;;5.60;86.30;;;;;;5034993;28;19921;-62
2023/04/08 03:51:54;;;;;;;;;;;5.60;86.40;;;;;;5035922;28;19921;-61
2023/04/08 03:54:21;;;;;;;;;;;5.70;86.00;;;;;;5034263;28;19921;-66
2023/04/08 03:56:49;;;;;;;;;;;5.60;86.10;;;;;;5036074;28;19936;-60
2023/04/08 03:59:17;;;;;;;;;;;5.60;86.20;;;;;;5033739;28;20299;-62
2023/04/08 04:01:43;;;;;;;;;;;5.50;86.40;;;;;;5029020;28;19920;-62
2023/04/08 04:04:10;;;;;;;;;;;5.60;85.90;;;;;;5031393;28;19928;-61
2023/04/08 04:06:37;;;;;;;;;;;5.60;85.60;;;;;;5031436;28;19931;-63
2023/04/08 04:09:04;;;;;;;;;;;5.50;85.80;;;;;;5028262;28;19937;-62
2023/04/08 04:11:31;;;;;;;;;;;5.50;85.80;;;;;;5028774;28;19956;-63
2023/04/08 04:13:58;;;;;;;;;;;5.60;85.70;;;;;;5032628;28;20000;-61
2023/04/08 04:16:26;;;;;;;;;;;5.50;85.70;;;;;;5029301;28;19958;-62
2023/04/08 04:18:53;;;;;;;;;;;5.40;85.90;;;;;;5029384;28;19921;-62
2023/04/08 04:21:19;;;;;;;;;;;5.50;86.10;;;;;;5029443;28;20364;-63
2023/04/08 04:23:46;;;;;;;;;;;5.50;86.10;;;;;;5034761;28;20006;-62
2023/04/08 04:26:14;;;;;;;;;;;5.40;86.00;;;;;;5028652;28;19932;-61
2023/04/08 04:28:40;;;;;;;;;;;5.40;86.00;;;;;;5030024;28;19925;-62
2023/04/08 04:31:07;;;;;;;;;;;5.30;86.10;;;;;;5031581;28;19929;-62
2023/04/08 04:33:35;;;;;;;;;;;5.40;86.00;;;;;;5031338;28;19920;-62
2023/04/08 04:36:02;;;;;;;;;;;5.40;86.00;;;;;;5028662;28;19924;-63
2023/04/08 04:38:28;;;;;;;;;;;5.30;86.10;;;;;;5033116;28;19956;-62
2023/04/08 04:40:56;;;;;;;;;;;5.30;86.10;;;;;;5030384;28;19924;-62
2023/04/08 04:43:23;;;;;;;;;;;5.30;86.10;;;;;;5012291;28;20580;-62
2023/04/08 04:45:50;;;;;;;;;;;5.30;86.00;;;;;;5031392;28;19929;-62
2023/04/08 04:48:17;;;;;;;;;;;5.30;86.00;;;;;;5027033;28;19957;-61
2023/04/08 04:50:45;;;;;;;;;;;5.30;86.00;;;;;;5029667;28;19921;-62
2023/04/08 04:53:12;;;;;;;;;;;5.40;85.90;;;;;;5031176;28;19925;-61
2023/04/08 04:55:38;;;;;;;;;;;5.40;86.00;;;;;;5033054;28;19921;-63
2023/04/08 04:58:05;;;;;;;;;;;5.30;86.00;;;;;;5030165;28;19929;-61
2023/04/08 05:00:32;;;;;;;;;;;5.40;86.00;;;;;;5033327;28;19925;-61
2023/04/08 05:02:59;;;;;;;;;;;5.30;86.00;;;;;;5028624;28;19944;-62
2023/04/08 05:05:26;;;;;;;;;;;5.30;86.20;;;;;;5031319;28;19924;-62
2023/04/08 05:07:54;;;;;;;;;;;5.30;86.20;;;;;;5026415;28;19925;-62
2023/04/08 05:10:20;;;;;;;;;;;5.40;86.10;;;;;;5030897;28;19925;-62
2023/04/08 05:12:47;;;;;;;;;;;5.40;86.00;;;;;;5034590;28;19928;-61
2023/04/08 05:15:14;;;;;;;;;;;5.40;86.00;;;;;;5036837;28;19936;-61
2023/04/08 05:17:41;;;;;;;;;;;5.40;85.90;;;;;;5024555;28;20422;-61
2023/04/08 05:20:08;;;;;;;;;;;5.40;85.90;;;;;;5034437;28;19929;-61
2023/04/08 05:22:35;;;;;;;;;;;5.40;86.00;;;;;;5033034;28;20394;-62
2023/04/08 05:25:03;;;;;;;;;;;5.40;86.00;;;;;;5036831;28;19925;-63
2023/04/08 05:27:30;;;;;;;;;;;5.40;85.90;;;;;;5035386;28;19936;-62
2023/04/08 05:29:56;;;;;;;;;;;5.40;86.00;;;;;;5035167;28;19925;-62
2023/04/08 05:32:23;;;;;;;;;;;5.30;86.20;;;;;;5030580;28;19924;-61
2023/04/08 05:34:50;;;;;;;;;;;5.20;86.30;;;;;;5034815;28;19924;-62
2023/04/08 05:37:17;;;;;;;;;;;5.30;86.30;;;;;;5035378;28;20387;-61
2023/04/08 05:39:43;;;;;;;;;;;5.40;86.30;;;;;;5032992;28;19928;-61
2023/04/08 05:42:12;;;;;;;;;;;5.40;86.40;;;;;;5036376;28;19951;-61
2023/04/08 05:44:40;;;;;;;;;;;5.40;86.40;;;;;;5018338;28;19925;-61
2023/04/08 05:47:07;;;;;;;;;;;5.40;86.30;;;;;;5032845;28;19931;-63
2023/04/08 05:49:34;;;;;;;;;;;5.40;86.30;;;;;;5034779;28;19925;-62
2023/04/08 05:52:00;;;;;;;;;;;5.40;86.20;;;;;;5033105;28;20617;-61
2023/04/08 05:54:27;;;;;;;;;;;5.40;86.20;;;;;;5016643;28;19921;-62
2023/04/08 05:56:54;;;;;;;;;;;5.40;86.50;;;;;;5013905;28;19924;-61
2023/04/08 05:59:22;;;;;;;;;;;5.40;86.50;;;;;;5038411;28;19931;-61
2023/04/08 06:01:49;;;;;;;;;;;5.40;86.50;;;;;;5033260;28;19925;-62
2023/04/08 06:04:16;;;;;;;;;;;5.40;86.50;;;;;;5036261;28;19925;-60
2023/04/08 06:06:43;;;;;;;;;;;5.50;86.40;;;;;;5031202;28;19925;-62
2023/04/08 06:09:10;;;;;;;;;;;5.60;86.40;;;;;;5029645;28;19978;-61
2023/04/08 06:11:36;;;;;;;;;;;5.60;86.40;;;;;;5031680;28;19928;-61
2023/04/08 06:14:03;;;;;;;;;;;5.70;86.20;;;;;;5035492;28;19929;-60
2023/04/08 06:16:31;;;;;;;;;;;5.70;86.30;;;;;;5033772;28;19925;-62
2023/04/08 06:18:58;;;;;;;;;;;5.70;86.30;;;;;;5035760;28;19928;-60
2023/04/08 06:21:25;;;;;;;;;;;5.60;86.40;;;;;;5033585;28;19924;-62
2023/04/08 06:23:52;;;;;;;;;;;5.70;86.40;;;;;;5032074;28;19956;-62
2023/04/08 06:26:18;;;;;;;;;;;5.70;86.30;;;;;;5033111;28;20471;-62
2023/04/08 06:28:45;;;;;;;;;;;5.70;86.00;;;;;;5025579;28;19930;-62
2023/04/08 06:31:12;;;;;;;;;;;5.70;86.00;;;;;;5031418;28;19942;-62
2023/04/08 06:33:40;;;;;;;;;;;5.70;86.30;;;;;;5032601;28;19925;-62
2023/04/08 06:36:07;;;;;;;;;;;5.60;86.40;;;;;;5028221;28;19922;-62
2023/04/08 06:38:34;;;;;;;;;;;5.60;86.30;;;;;;5032917;28;19928;-62
2023/04/08 06:41:04;;;;;;;;;;;5.70;86.20;;;;;;5038057;28;19936;-64
2023/04/08 06:43:30;;;;;;;;;;;5.70;86.00;;;;;;5034185;28;19935;-60
2023/04/08 06:45:57;;;;;;;;;;;5.70;85.90;;;;;;5034042;28;20229;-62
2023/04/08 06:48:27;;;;;;;;;;;5.80;86.10;;;;;;5039566;28;19960;-73
2023/04/08 06:50:55;;;;;;;;;;;5.80;86.20;;;;;;5033458;28;19975;-64
2023/04/08 06:53:23;;;;;;;;;;;5.80;85.90;;;;;;5035262;28;19924;-63
2023/04/08 06:55:49;;;;;;;;;;;5.80;86.10;;;;;;5040102;28;19978;-61
2023/04/08 06:58:16;;;;;;;;;;;5.80;86.20;;;;;;5044380;28;19927;-64
2023/04/08 07:00:43;;;;;;;;;;;5.70;86.30;;;;;;5036072;28;22186;-62
2023/04/08 07:03:10;;;;;;;;;;;5.70;86.30;;;;;;5050280;28;19925;-63
2023/04/08 07:05:37;;;;;;;;;;;5.80;86.40;;;;;;5028166;28;19929;-62
2023/04/08 07:08:05;;;;;;;;;;;5.70;86.50;;;;;;5030057;28;19991;-64
2023/04/08 07:10:32;;;;;;;;;;;5.70;86.60;;;;;;5030669;28;19921;-61
2023/04/08 07:12:59;;;;;;;;;;;5.70;86.80;;;;;;5036909;28;19924;-63
2023/04/08 07:15:25;;;;;;;;;;;5.70;86.60;;;;;;5023211;28;19921;-63
2023/04/08 07:17:55;;;;;;;;;;;5.80;86.40;;;;;;5032500;28;19925;-63
2023/04/08 07:20:22;;;;;;;;;;;5.90;86.40;;;;;;5031209;28;19931;-63
2023/04/08 07:22:49;;;;;;;;;;;5.80;86.40;;;;;;5026378;28;19931;-63
2023/04/08 07:25:17;;;;;;;;;;;5.90;86.50;;;;;;5031600;28;19929;-63
2023/04/08 07:27:44;;;;;;;;;;;5.90;86.40;;;;;;5027102;28;19928;-62
2023/04/08 07:30:11;;;;;;;;;;;6.00;86.20;;;;;;5031467;28;19975;-61
2023/04/08 07:32:38;;;;;;;;;;;6.00;86.30;;;;;;5027655;28;19931;-61
2023/04/08 07:35:06;;;;;;;;;;;6.00;86.50;;;;;;5034044;28;20316;-62
2023/04/08 07:37:32;;;;;;;;;;;6.10;86.40;;;;;;5033277;28;19982;-62
2023/04/08 07:39:59;;;;;;;;;;;6.20;86.00;;;;;;5029994;28;20045;-61
2023/04/08 07:42:27;;;;;;;;;;;6.20;86.30;;;;;;5027955;28;19920;-62
2023/04/08 07:44:54;;;;;;;;;;;6.30;86.40;;;;;;5029231;28;19989;-61
2023/04/08 07:47:21;;;;;;;;;;;6.30;86.20;;;;;;5026493;28;19929;-60
2023/04/08 07:49:48;;;;;;;;;;;6.30;85.70;;;;;;5025554;28;19963;-61
2023/04/08 07:52:14;;;;;;;;;;;6.40;86.00;;;;;;5027795;28;19925;-60
2023/04/08 07:54:41;;;;;;;;;;;6.60;86.00;;;;;;5030894;28;19968;-63
2023/04/08 07:57:08;;;;;;;;;;;6.60;85.80;;;;;;5028414;28;19936;-62
2023/04/08 07:59:36;;;;;;;;;;;6.70;85.50;;;;;;5009976;28;19921;-62
2023/04/08 08:02:04;;;;;;;;;;;6.70;84.80;;;;;;5023154;28;19932;-61
2023/04/08 08:04:31;;;;;;;;;;;6.70;85.20;;;;;;5028827;28;19935;-62
2023/04/08 08:06:58;;;;;;;;;;;6.70;85.50;;;;;;5029696;28;20390;-61
2023/04/08 08:09:24;;;;;;;;;;;6.80;85.30;;;;;;5030136;28;19932;-61
2023/04/08 08:11:51;;;;;;;;;;;6.90;85.10;;;;;;5029177;28;19929;-62
2023/04/08 08:14:18;;;;;;;;;;;6.90;85.20;;;;;;5029155;28;19924;-61
2023/04/08 08:16:47;;;;;;;;;;;6.90;85.30;;;;;;5028404;28;20483;-61
2023/04/08 08:19:13;;;;;;;;;;;6.90;85.20;;;;;;5028774;28;19936;-62
2023/04/08 08:21:40;;;;;;;;;;;6.90;84.70;;;;;;5030577;28;19924;-61
2023/04/08 08:24:07;;;;;;;;;;;6.90;85.10;;;;;;5028637;28;20319;-62
2023/04/08 08:26:34;;;;;;;;;;;6.90;85.00;;;;;;5032649;28;19921;-62
2023/04/08 08:29:01;;;;;;;;;;;7.00;85.00;;;;;;5028412;28;19941;-62
2023/04/08 08:31:28;;;;;;;;;;;7.10;85.00;;;;;;5027111;28;19921;-62
2023/04/08 08:33:56;;;;;;;;;;;7.10;85.00;;;;;;5030158;28;19940;-61
2023/04/08 08:36:23;;;;;;;;;;;7.20;85.20;;;;;;5030455;28;19929;-62
2023/04/08 08:38:50;;;;;;;;;;;7.30;85.00;;;;;;5034307;28;19921;-63
2023/04/08 08:41:17;;;;;;;;;;;7.40;84.80;;;;;;5029444;28;19921;-62
2023/04/08 08:43:44;;;;;;;;;;;7.50;84.70;;;;;;5030388;28;19935;-62
2023/04/08 08:46:11;;;;;;;;;;;7.60;84.60;;;;;;5033440;28;19932;-62
2023/04/08 08:48:39;;;;;;;;;;;7.70;84.60;;;;;;5033958;28;19928;-64
2023/04/08 08:51:09;;;;;;;;;;;7.70;83.90;;;;;;5034837;28;20004;-62
2023/04/08 08:53:36;;;;;;;;;;;7.70;83.80;;;;;;5035494;28;19928;-62
2023/04/08 08:56:03;;;;;;;;;;;7.90;83.70;;;;;;5034817;28;19925;-61
2023/04/08 08:58:30;;;;;;;;;;;7.90;83.30;;;;;;5032000;28;19928;-61
2023/04/08 09:00:57;;;;;;;;;;;8.10;83.20;;;;;;5033955;28;19936;-62
2023/04/08 09:03:26;;;;;;;;;;;8.20;82.90;;;;;;5029878;28;19920;-66
2023/04/08 09:05:53;;;;;;;;;;;8.40;82.30;;;;;;5031095;28;19924;-62
2023/04/08 09:08:25;;;;;;;;;;;8.40;81.90;;;;;;5033701;28;19921;-61
2023/04/08 09:10:52;;;;;;;;;;;8.60;81.40;;;;;;5034271;28;19932;-62
2023/04/08 09:13:18;;;;;;;;;;;8.60;80.90;;;;;;5036652;28;20360;-61
2023/04/08 09:16:00;;;;;;;;;;;8.60;80.80;;;;;;5031565;28;19932;-61
2023/04/08 09:18:27;;;;;;;;;;;8.70;80.80;;;;;;5034049;28;20384;-62
2023/04/08 09:20:54;;;;;;;;;;;8.70;80.70;;;;;;5033699;28;19927;-61
2023/04/08 09:23:21;;;;;;;;;;;8.80;80.50;;;;;;5035440;28;20608;-62
2023/04/08 09:25:49;;;;;;;;;;;8.90;80.30;;;;;;5032302;28;19925;-61
2023/04/08 09:28:19;;;;;;;;;;;9.00;79.80;;;;;;5034154;28;19929;-61
2023/04/08 09:30:46;;;;;;;;;;;9.00;78.90;;;;;;5021182;28;20304;-63
2023/04/08 09:33:13;;;;;;;;;;;9.00;78.80;;;;;;5032884;28;19921;-62
2023/04/08 09:35:40;;;;;;;;;;;9.00;78.30;;;;;;5035977;28;20406;-62
2023/04/08 09:38:06;;;;;;;;;;;9.00;77.90;;;;;;5033919;28;19920;-62
2023/04/08 09:40:34;;;;;;;;;;;9.10;77.90;;;;;;5029103;28;19932;-66
2023/04/08 09:43:04;;;;;;;;;;;9.10;77.80;;;;;;5033319;28;20011;-69
2023/04/08 09:45:33;;;;;;;;;;;9.20;77.70;;;;;;5031297;28;19931;-70
2023/04/08 09:48:04;;;;;;;;;;;9.20;77.60;;;;;;5035388;28;20009;-69
2023/04/08 09:50:31;;;;;;;;;;;9.30;77.30;;;;;;5034103;28;19924;-68
2023/04/08 09:53:01;;;;;;;;;;;9.40;77.20;;;;;;5035039;28;20008;-63
2023/04/08 09:55:30;;;;;;;;;;;9.40;77.50;;;;;;5037714;28;19928;-63
2023/04/08 09:57:59;;;;;;;;;;;9.50;77.30;;;;;;5037418;28;19920;-63
2023/04/08 10:00:32;;;;;;;;;;;9.50;76.80;;;;;;5031102;28;20008;-62
2023/04/08 10:03:01;;;;;;;;;;;9.50;76.60;;;;;;5034367;28;19975;-63
2023/04/08 10:05:29;;;;;;;;;;;9.50;76.50;;;;;;5031869;28;19920;-62
2023/04/08 10:07:56;;;;;;;;;;;9.60;76.60;;;;;;5033145;28;19925;-63
2023/04/08 10:10:23;;;;;;;;;;;9.50;76.60;;;;;;5026827;28;19940;-62
2023/04/08 10:12:50;;;;;;;;;;;9.50;75.90;;;;;;5035002;28;20283;-63
2023/04/08 10:15:24;;;;;;;;;;;9.50;75.70;;;;;;5031263;28;19949;-62
2023/04/08 10:17:53;;;;;;;;;;;9.50;75.70;;;;;;5031353;28;20508;-61
2023/04/08 10:20:39;;;;;;;;;;;9.50;75.10;;;;;;5027884;28;19921;-62
2023/04/08 10:23:06;;;;;;;;;;;9.40;74.70;;;;;;5028410;28;20371;-64
2023/04/08 10:25:33;;;;;;;;;;;9.50;75.10;;;;;;5033937;28;19925;-63
2023/04/08 10:28:00;;;;;;;;;;;9.50;74.40;;;;;;5030949;28;19963;-63
2023/04/08 10:30:39;;;;;;;;;;;9.60;74.60;;;;;;5033393;28;19925;-62
2023/04/08 10:33:10;;;;;;;;;;;9.70;74.30;;;;;;5032551;28;19932;-62
2023/04/08 10:35:40;;;;;;;;;;;9.80;74.60;;;;;;5028207;28;19928;-63
2023/04/08 10:38:07;;;;;;;;;;;9.90;74.50;;;;;;5033186;28;19943;-60
2023/04/08 10:40:36;;;;;;;;;;;10.00;74.40;;;;;;5031696;28;19921;-62
2023/04/08 10:43:04;;;;;;;;;;;10.10;74.50;;;;;;5036002;28;19925;-62
2023/04/08 10:45:31;;;;;;;;;;;10.30;74.90;;;;;;5033376;28;19924;-62
2023/04/08 10:47:57;;;;;;;;;;;10.40;74.60;;;;;;5029339;28;19920;-62
2023/04/08 10:50:25;;;;;;;;;;;10.50;74.80;;;;;;5032492;28;19929;-64
2023/04/08 10:52:53;;;;;;;;;;;10.60;74.30;;;;;;5033095;28;19948;-63
2023/04/08 10:55:22;;;;;;;;;;;10.60;73.90;;;;;;5034258;28;19925;-63
2023/04/08 10:57:50;;;;;;;;;;;10.60;73.60;;;;;;5031551;28;20074;-62
2023/04/08 11:00:17;;;;;;;;;;;10.60;73.40;;;;;;5032801;28;19979;-63
2023/04/08 11:02:44;;;;;;;;;;;10.70;73.40;;;;;;5033737;28;20016;-63
2023/04/08 11:05:11;;;;;;;;;;;10.60;73.60;;;;;;5029066;28;19921;-62
2023/04/08 11:07:41;;;;;;;;;;;10.70;73.30;;;;;;5030841;28;19925;-62
2023/04/08 11:10:08;;;;;;;;;;;10.70;73.30;;;;;;5026083;28;20347;-63
2023/04/08 11:12:36;;;;;;;;;;;10.80;73.00;;;;;;5032363;28;19929;-62
2023/04/08 11:15:03;;;;;;;;;;;10.80;73.10;;;;;;5033044;28;20702;-63
2023/04/08 11:17:30;;;;;;;;;;;10.80;73.50;;;;;;5029324;28;19929;-63
2023/04/08 11:20:01;;;;;;;;;;;10.90;72.90;;;;;;5029756;28;19931;-63
2023/04/08 11:22:29;;;;;;;;;;;11.00;72.90;;;;;;5027962;28;19933;-64
2023/04/08 11:24:58;;;;;;;;;;;11.10;72.90;;;;;;5036558;28;20562;-62
2023/04/08 11:27:25;;;;;;;;;;;11.20;72.50;;;;;;5037368;28;20387;-62
2023/04/08 11:29:53;;;;;;;;;;;11.20;72.60;;;;;;5031970;28;20017;-64
2023/04/08 11:32:20;;;;;;;;;;;11.30;72.70;;;;;;5026022;28;19961;-63
2023/04/08 11:34:47;;;;;;;;;;;11.40;72.20;;;;;;5033539;28;19921;-62
2023/04/08 11:37:14;;;;;;;;;;;11.40;72.00;;;;;;5029584;28;20394;-64
2023/04/08 11:39:42;;;;;;;;;;;11.40;71.70;;;;;;5030745;28;19948;-64
2023/04/08 11:42:25;;;;;;;;;;;11.60;71.40;;;;;;5035589;28;19921;-64
2023/04/08 11:44:52;;;;;;;;;;;11.60;71.40;;;;;;5027331;28;19935;-64
2023/04/08 11:47:19;;;;;;;;;;;11.70;70.90;;;;;;5026634;28;19935;-64
2023/04/08 11:49:46;;;;;;;;;;;11.70;70.80;;;;;;5031070;28;19935;-63
2023/04/08 11:52:13;;;;;;;;;;;11.70;70.40;;;;;;5035137;28;19948;-63
2023/04/08 11:54:41;;;;;;;;;;;11.70;70.30;;;;;;5029860;28;19925;-62
2023/04/08 11:57:09;;;;;;;;;;;11.80;70.50;;;;;;5014347;28;19948;-62
2023/04/08 11:59:37;;;;;;;;;;;12.00;70.70;;;;;;5035482;28;19991;-64
2023/04/08 12:02:04;;;;;;;;;;;12.10;70.30;;;;;;5031640;28;19928;-63
2023/04/08 12:04:32;;;;;;;;;;;12.20;70.10;;;;;;5023558;28;19964;-64
2023/04/08 12:06:59;;;;;;;;;;;12.20;69.60;;;;;;5030741;28;19954;-64
2023/04/08 12:09:26;;;;;;;;;;;12.30;69.50;;;;;;5036455;28;19924;-64
2023/04/08 12:11:53;;;;;;;;;;;12.30;69.30;;;;;;5034278;28;19921;-64
2023/04/08 12:14:20;;;;;;;;;;;12.30;69.60;;;;;;5027047;28;19952;-65
2023/04/08 12:16:48;;;;;;;;;;;12.30;69.40;;;;;;5027045;28;19921;-64
2023/04/08 12:19:15;;;;;;;;;;;12.20;69.40;;;;;;5028233;28;19928;-65
2023/04/08 12:21:42;;;;;;;;;;;12.20;69.90;;;;;;5032995;28;19935;-64
2023/04/08 12:24:08;;;;;;;;;;;12.20;69.50;;;;;;5032005;28;19920;-64
2023/04/08 12:26:35;;;;;;;;;;;12.10;69.20;;;;;;5033108;28;19929;-64
2023/04/08 12:29:02;;;;;;;;;;;12.10;69.50;;;;;;5034576;28;20317;-65
2023/04/08 12:31:29;;;;;;;;;;;12.10;69.40;;;;;;5035720;28;19925;-65
2023/04/08 12:33:57;;;;;;;;;;;12.10;69.90;;;;;;5031902;28;19925;-62
2023/04/08 12:36:24;;;;;;;;;;;12.00;69.60;;;;;;5032575;28;19929;-65
2023/04/08 12:38:50;;;;;;;;;;;12.00;69.60;;;;;;5031994;28;19928;-64
2023/04/08 12:41:17;;;;;;;;;;;12.00;69.60;;;;;;5033879;28;19931;-65
2023/04/08 12:43:44;;;;;;;;;;;12.00;69.20;;;;;;5033497;28;20378;-65
2023/04/08 12:46:11;;;;;;;;;;;12.00;69.20;;;;;;5032199;28;19931;-64
2023/04/08 12:48:38;;;;;;;;;;;12.00;69.00;;;;;;5005864;28;19956;-64
2023/04/08 12:51:08;;;;;;;;;;;12.00;68.90;;;;;;5034374;28;19947;-63
2023/04/08 12:53:35;;;;;;;;;;;11.90;69.10;;;;;;5034260;28;19987;-63
2023/04/08 12:56:02;;;;;;;;;;;12.00;69.30;;;;;;5037621;28;19937;-65
2023/04/08 12:58:28;;;;;;;;;;;12.00;69.70;;;;;;5033677;28;19921;-64
2023/04/08 13:00:55;;;;;;;;;;;12.10;70.00;;;;;;5033992;28;19925;-64
2023/04/08 13:03:22;;;;;;;;;;;12.10;70.50;;;;;;5033358;28;19964;-63
2023/04/08 13:05:49;;;;;;;;;;;12.00;70.60;;;;;;5029450;28;20024;-63
2023/04/08 13:08:17;;;;;;;;;;;12.00;70.80;;;;;;5035551;28;19920;-65
2023/04/08 13:10:43;;;;;;;;;;;12.10;71.00;;;;;;5032575;28;19935;-63
2023/04/08 13:13:10;;;;;;;;;;;12.10;70.90;;;;;;5034224;28;19945;-65
2023/04/08 13:15:37;;;;;;;;;;;12.10;70.80;;;;;;5031517;28;19921;-65
2023/04/08 13:18:04;;;;;;;;;;;12.10;70.70;;;;;;5030033;28;19924;-64
2023/04/08 13:20:32;;;;;;;;;;;12.10;70.70;;;;;;5030494;28;20428;-65
2023/04/08 13:22:59;;;;;;;;;;;12.00;70.60;;;;;;5033463;28;19925;-63
2023/04/08 13:25:27;;;;;;;;;;;11.90;70.70;;;;;;5034058;28;19952;-65
2023/04/08 13:27:54;;;;;;;;;;;11.90;71.30;;;;;;5033708;28;19921;-64
2023/04/08 13:30:20;;;;;;;;;;;11.90;71.80;;;;;;5034475;28;19927;-64
2023/04/08 13:32:47;;;;;;;;;;;11.90;71.50;;;;;;5035742;28;19921;-64
2023/04/08 13:35:14;;;;;;;;;;;11.80;71.60;;;;;;5032831;28;20240;-65
2023/04/08 13:37:41;;;;;;;;;;;11.90;71.90;;;;;;5034868;28;19947;-64
2023/04/08 13:40:08;;;;;;;;;;;11.90;72.00;;;;;;5035667;28;19939;-63
2023/04/08 13:42:36;;;;;;;;;;;11.90;72.00;;;;;;5033335;28;19925;-63
2023/04/08 13:45:03;;;;;;;;;;;12.10;71.60;;;;;;5035321;28;19964;-65
2023/04/08 13:47:31;;;;;;;;;;;12.20;71.20;;;;;;5030986;28;19960;-65
2023/04/08 13:49:57;;;;;;;;;;;12.20;71.00;;;;;;5029396;28;19932;-64
2023/04/08 13:52:24;;;;;;;;;;;12.40;70.90;;;;;;5034805;28;19925;-63
2023/04/08 13:54:51;;;;;;;;;;;12.40;70.60;;;;;;5032176;28;19927;-64
2023/04/08 13:57:18;;;;;;;;;;;12.40;70.70;;;;;;5036011;28;19940;-64
2023/04/08 13:59:46;;;;;;;;;;;12.50;70.70;;;;;;5031819;28;19928;-65
2023/04/08 14:02:13;;;;;;;;;;;12.50;70.30;;;;;;5030463;28;20393;-65
2023/04/08 14:04:39;;;;;;;;;;;12.50;69.90;;;;;;5029340;28;19920;-65
2023/04/08 14:07:06;;;;;;;;;;;12.60;70.00;;;;;;5030727;28;19929;-66
2023/04/08 14:09:34;;;;;;;;;;;12.50;70.10;;;;;;5028459;28;19931;-65
2023/04/08 14:12:01;;;;;;;;;;;12.40;70.10;;;;;;5035580;28;20004;-66
2023/04/08 14:14:28;;;;;;;;;;;12.60;69.80;;;;;;5032410;28;19921;-65
2023/04/08 14:16:56;;;;;;;;;;;12.50;69.60;;;;;;5031168;28;20433;-65
2023/04/08 14:19:23;;;;;;;;;;;12.60;69.60;;;;;;5028762;28;19952;-65
2023/04/08 14:21:50;;;;;;;;;;;12.60;69.90;;;;;;5028401;28;20024;-65
2023/04/08 14:24:16;;;;;;;;;;;12.50;69.90;;;;;;5029886;28;20020;-66
2023/04/08 14:26:43;;;;;;;;;;;12.60;70.20;;;;;;5012946;28;19920;-64